createdAt,value
2022-11-07T00:02:03.101Z,99767.38
2022-11-07T00:04:31.794Z,99770.81
2022-11-07T00:07:00.093Z,99771.63
2022-11-07T00:09:28.565Z,99775.09
2022-11-07T00:11:56.895Z,99770.81
2022-11-07T00:14:25.822Z,99769.97
2022-11-07T00:16:55.491Z,99766.53
2022-11-07T00:19:23.831Z,99771.66
2022-11-07T00:21:52.194Z,99775.09
2022-11-07T00:24:20.723Z,99774.22
2022-11-07T00:26:49.279Z,99774.22
2022-11-07T00:29:18.844Z,99774.22
2022-11-07T00:31:47.283Z,99774.22
2022-11-07T00:34:17.234Z,99774.19
2022-11-07T00:36:45.736Z,99786.97
2022-11-07T00:39:14.045Z,99777.59
2022-11-07T00:41:42.484Z,99779.31
2022-11-07T00:44:10.793Z,99775.91
2022-11-07T00:46:39.195Z,99781.88
2022-11-07T00:49:07.482Z,99782.72
2022-11-07T00:51:37.354Z,99775.91
2022-11-07T00:54:05.724Z,99775.06
2022-11-07T00:56:34.142Z,99769.94
2022-11-07T00:59:02.885Z,99767.38
2022-11-07T01:01:32.427Z,99767.38
2022-11-07T01:04:10.121Z,99771.66
2022-11-07T01:06:41.544Z,99769.09
2022-11-07T01:09:10.599Z,99775.91
2022-11-07T01:11:39.532Z,99786.97
2022-11-07T01:14:08.861Z,99773.34
2022-11-07T01:16:39.096Z,99775.91
2022-11-07T01:19:08.793Z,99775.91
2022-11-07T01:21:38.477Z,99772.50
2022-11-07T01:24:09.464Z,99774.22
2022-11-07T01:26:38.136Z,99769.09
2022-11-07T01:29:06.821Z,99774.22
2022-11-07T01:31:35.274Z,99770.81
2022-11-07T01:34:03.584Z,99764.00
2022-11-07T01:36:32.098Z,99757.19
2022-11-07T01:39:01.084Z,99758.06
2022-11-07T01:41:32.725Z,99755.47
2022-11-07T01:44:02.635Z,99756.34
2022-11-07T01:46:32.350Z,99758.91
2022-11-07T01:49:04.873Z,99754.63
2022-11-07T01:51:35.076Z,99757.19
2022-11-07T01:54:04.496Z,99759.75
2022-11-07T01:56:37.044Z,99765.69
2022-11-07T01:59:05.977Z,99762.31
2022-11-07T02:01:34.318Z,99762.31
2022-11-07T02:04:04.302Z,99758.91
2022-11-07T02:06:37.276Z,99758.06
2022-11-07T02:09:05.803Z,99754.66
2022-11-07T02:11:35.529Z,99755.50
2022-11-07T02:14:03.876Z,99753.78
2022-11-07T02:16:33.342Z,99747.00
2022-11-07T02:19:02.006Z,99752.13
2022-11-07T02:21:36.403Z,99748.69
2022-11-07T02:24:10.405Z,99752.94
2022-11-07T02:26:41.242Z,99748.72
2022-11-07T02:29:11.476Z,99750.38
2022-11-07T02:31:39.780Z,99759.75
2022-11-07T02:34:08.041Z,99763.16
2022-11-07T02:36:36.303Z,99762.31
2022-11-07T02:39:04.922Z,99757.19
2022-11-07T02:41:35.728Z,99760.59
2022-11-07T02:44:07.533Z,99763.16
2022-11-07T02:46:36.587Z,99767.44
2022-11-07T02:49:04.927Z,99757.22
2022-11-07T02:51:33.296Z,99757.22
2022-11-07T02:54:01.563Z,99753.78
2022-11-07T02:56:29.850Z,99755.50
2022-11-07T02:58:58.302Z,99761.47
2022-11-07T03:01:28.619Z,99756.34
2022-11-07T03:03:57.870Z,99757.22
2022-11-07T03:06:27.054Z,99747.00
2022-11-07T03:08:55.483Z,99750.38
2022-11-07T03:11:23.715Z,99754.63
2022-11-07T03:13:54.312Z,99759.75
2022-11-07T03:16:23.815Z,99763.16
2022-11-07T03:18:53.507Z,99759.75
2022-11-07T03:21:22.336Z,99756.34
2022-11-07T03:23:50.615Z,99766.56
2022-11-07T03:26:18.965Z,99762.31
2022-11-07T03:28:47.233Z,99774.22
2022-11-07T03:31:15.597Z,99768.25
2022-11-07T03:33:44.127Z,99778.50
2022-11-07T03:36:14.363Z,99784.44
2022-11-07T03:38:43.044Z,99781.06
2022-11-07T03:41:17.423Z,99779.34
2022-11-07T03:43:46.599Z,99780.19
2022-11-07T03:46:14.959Z,99784.44
2022-11-07T03:48:43.323Z,99783.63
2022-11-07T03:51:12.319Z,99785.28
2022-11-07T03:53:42.062Z,99789.53
2022-11-07T03:56:11.395Z,99781.03
2022-11-07T03:58:40.936Z,99784.44
2022-11-07T04:01:10.746Z,99775.09
2022-11-07T04:03:39.097Z,99782.75
2022-11-07T04:06:07.862Z,99787.84
2022-11-07T04:08:36.415Z,99789.56
2022-11-07T04:11:06.128Z,99799.78
2022-11-07T04:13:44.680Z,99787.00
2022-11-07T04:16:23.377Z,99801.47
2022-11-07T04:18:51.765Z,99794.66
2022-11-07T04:21:20.098Z,99792.94
2022-11-07T04:23:48.648Z,99796.38
2022-11-07T04:26:28.565Z,99803.16
2022-11-07T04:28:57.274Z,99805.72
2022-11-07T04:31:25.858Z,99799.75
2022-11-07T04:33:54.164Z,99791.25
2022-11-07T04:36:22.497Z,99800.59
2022-11-07T04:38:50.857Z,99799.72
2022-11-07T04:41:24.109Z,99802.28
2022-11-07T04:43:52.878Z,99799.72
2022-11-07T04:46:23.558Z,99809.91
2022-11-07T04:48:51.929Z,99798.88
2022-11-07T04:51:22.379Z,99810.75
2022-11-07T04:53:51.005Z,99811.56
2022-11-07T04:56:19.296Z,99805.56
2022-11-07T04:58:49.076Z,99804.72
2022-11-07T05:01:18.691Z,99806.38
2022-11-07T05:03:47.446Z,99819.97
2022-11-07T05:06:15.999Z,99819.97
2022-11-07T05:08:44.365Z,99820.81
2022-11-07T05:11:12.654Z,99825.88
2022-11-07T05:13:40.985Z,99831.78
2022-11-07T05:16:13.710Z,99836.88
2022-11-07T05:18:42.019Z,99838.59
2022-11-07T05:21:10.379Z,99841.94
2022-11-07T05:23:38.935Z,99840.25
2022-11-07T05:26:07.427Z,99845.31
2022-11-07T05:28:39.335Z,99850.38
2022-11-07T05:31:09.257Z,99856.31
2022-11-07T05:33:38.945Z,99859.69
2022-11-07T05:36:14.596Z,99860.56
2022-11-07T05:38:43.937Z,99863.91
2022-11-07T05:41:12.579Z,99864.72
2022-11-07T05:43:41.213Z,99865.56
2022-11-07T05:46:09.546Z,99872.34
2022-11-07T05:48:39.236Z,99871.50
2022-11-07T05:51:08.724Z,99872.28
2022-11-07T05:53:37.313Z,99886.69
2022-11-07T05:56:05.868Z,99894.25
2022-11-07T05:58:34.135Z,99887.47
2022-11-07T06:01:03.489Z,99896.84
2022-11-07T06:03:31.675Z,99896.03
2022-11-07T06:06:01.467Z,99901.13
2022-11-07T06:08:29.748Z,99905.41
2022-11-07T06:10:58.039Z,99914.75
2022-11-07T06:13:26.319Z,99914.72
2022-11-07T06:15:54.555Z,99916.38
2022-11-07T06:18:23.351Z,99916.41
2022-11-07T06:20:51.668Z,99914.75
2022-11-07T06:23:21.806Z,99921.56
2022-11-07T06:25:51.896Z,99923.31
2022-11-07T06:28:20.205Z,99930.16
2022-11-07T06:30:50.270Z,99931.00
2022-11-07T06:33:20.214Z,99930.16
2022-11-07T06:35:49.067Z,99931.91
2022-11-07T06:38:17.353Z,99943.81
2022-11-07T06:40:47.089Z,99942.97
2022-11-07T06:43:18.199Z,99952.31
2022-11-07T06:45:48.491Z,99947.22
2022-11-07T06:48:16.979Z,99952.31
2022-11-07T06:50:45.292Z,99963.38
2022-11-07T06:53:14.979Z,99967.66
2022-11-07T06:55:43.537Z,99965.97
2022-11-07T06:58:13.234Z,99975.31
2022-11-07T07:00:41.662Z,99971.94
2022-11-07T07:03:11.626Z,99974.50
2022-11-07T07:05:40.087Z,99976.19
2022-11-07T07:08:09.358Z,99973.66
2022-11-07T07:10:39.695Z,99972.84
2022-11-07T07:13:07.930Z,99978.81
2022-11-07T07:15:50.382Z,99976.22
2022-11-07T07:18:19.800Z,99976.22
2022-11-07T07:20:48.605Z,99977.09
2022-11-07T07:23:17.699Z,99974.50
2022-11-07T07:25:46.217Z,99978.78
2022-11-07T07:28:14.657Z,99978.78
2022-11-07T07:30:50.299Z,99981.31
2022-11-07T07:33:20.003Z,99974.53
2022-11-07T07:35:48.291Z,99978.81
2022-11-07T07:38:16.645Z,99981.31
2022-11-07T07:40:44.951Z,99980.44
2022-11-07T07:43:13.778Z,99979.56
2022-11-07T07:45:42.318Z,99981.25
2022-11-07T07:48:12.499Z,99973.59
2022-11-07T07:50:40.775Z,99970.16
2022-11-07T07:53:09.528Z,99976.06
2022-11-07T07:55:38.024Z,99971.81
2022-11-07T07:58:06.363Z,99967.56
2022-11-07T08:00:34.973Z,99970.13
2022-11-07T08:03:03.379Z,99967.56
2022-11-07T08:05:33.553Z,99959.91
2022-11-07T08:08:02.029Z,99964.16
2022-11-07T08:10:45.910Z,99973.53
2022-11-07T08:13:14.774Z,99978.63
2022-11-07T08:15:43.273Z,99979.50
2022-11-07T08:18:12.062Z,99974.41
2022-11-07T08:20:41.752Z,99980.38
2022-11-07T08:23:16.163Z,99982.91
2022-11-07T08:25:50.339Z,99988.00
2022-11-07T08:28:18.688Z,99999.91
2022-11-07T08:30:47.591Z,100001.63
2022-11-07T08:33:16.153Z,100005.88
2022-11-07T08:35:46.123Z,100000.81
2022-11-07T08:38:15.172Z,100006.81
2022-11-07T08:40:43.385Z,100007.66
2022-11-07T08:43:13.274Z,99996.63
2022-11-07T08:45:41.704Z,100016.22
2022-11-07T08:48:09.859Z,100020.47
2022-11-07T08:50:38.122Z,100018.81
2022-11-07T08:53:07.794Z,100021.41
2022-11-07T08:55:36.270Z,100025.66
2022-11-07T08:58:05.675Z,100021.44
2022-11-07T09:00:34.839Z,100022.31
2022-11-07T09:05:52.421Z,100025.84
2022-11-07T09:08:22.043Z,100018.22
2022-11-07T09:10:50.722Z,100019.94
2022-11-07T09:13:20.923Z,100022.50
2022-11-07T09:15:51.419Z,100013.19
2022-11-07T09:18:20.803Z,100017.41
2022-11-07T09:20:48.984Z,100020.81
2022-11-07T09:23:17.551Z,100027.63
2022-11-07T09:25:47.743Z,100026.78
2022-11-07T09:28:16.621Z,100031.00
2022-11-07T09:30:44.872Z,100019.94
2022-11-07T09:33:13.476Z,100020.78
2022-11-07T09:35:41.854Z,100019.06
2022-11-07T09:38:10.103Z,100017.31
2022-11-07T09:40:43.243Z,100020.75
2022-11-07T09:43:29.154Z,100035.16
2022-11-07T09:46:05.168Z,100035.22
2022-11-07T09:48:36.355Z,100034.38
2022-11-07T09:51:05.234Z,100036.94
2022-11-07T09:53:35.904Z,100031.00
2022-11-07T09:56:05.899Z,100025.88
2022-11-07T09:58:35.552Z,100017.34
2022-11-07T10:01:07.429Z,100014.78
2022-11-07T10:03:36.875Z,100017.34
2022-11-07T10:06:07.864Z,100030.13
2022-11-07T10:08:40.452Z,100030.19
2022-11-07T10:11:10.331Z,100025.97
2022-11-07T10:13:53.001Z,100026.00
2022-11-07T10:16:29.542Z,100021.75
2022-11-07T10:19:02.935Z,100025.97
2022-11-07T10:21:38.180Z,100019.16
2022-11-07T10:24:18.171Z,100016.59
2022-11-07T10:26:46.636Z,100014.03
2022-11-07T10:29:16.036Z,100011.53
2022-11-07T10:31:50.403Z,100005.59
2022-11-07T10:34:22.842Z,100011.59
2022-11-07T10:36:51.487Z,100015.00
2022-11-07T10:39:21.114Z,100022.72
2022-11-07T10:41:53.595Z,100019.31
2022-11-07T10:44:25.232Z,100008.25
2022-11-07T10:46:55.203Z,100010.78
2022-11-07T10:49:24.577Z,100011.66
2022-11-07T10:51:53.642Z,100012.44
2022-11-07T10:54:23.363Z,100014.16
2022-11-07T10:56:55.723Z,100009.06
2022-11-07T10:59:29.057Z,100009.09
2022-11-07T11:02:03.029Z,100009.94
2022-11-07T11:04:32.697Z,100006.53
2022-11-07T11:07:02.158Z,99999.75
2022-11-07T11:09:31.257Z,100002.34
2022-11-07T11:11:59.522Z,100001.50
2022-11-07T11:14:27.904Z,100009.19
2022-11-07T11:16:57.368Z,100001.53
2022-11-07T11:19:29.217Z,100000.72
2022-11-07T11:21:58.847Z,99997.28
2022-11-07T11:24:31.916Z,99995.59
2022-11-07T11:27:01.287Z,99993.91
2022-11-07T11:29:39.266Z,99987.94
2022-11-07T11:32:13.868Z,99992.19
2022-11-07T11:34:50.859Z,99990.50
2022-11-07T11:37:21.676Z,99984.50
2022-11-07T11:39:53.028Z,99979.41
2022-11-07T11:42:27.577Z,99981.09
2022-11-07T11:44:58.777Z,99981.09
2022-11-07T11:47:34.284Z,99987.09
2022-11-07T11:50:10.578Z,99985.38
2022-11-07T11:52:39.451Z,99979.44
2022-11-07T11:55:14.125Z,99974.34
2022-11-07T11:57:48.406Z,99970.91
2022-11-07T12:00:18.635Z,99973.50
2022-11-07T12:02:55.565Z,99971.78
2022-11-07T12:05:35.288Z,99964.09
2022-11-07T12:08:13.602Z,99961.50
2022-11-07T12:10:45.590Z,99968.28
2022-11-07T12:13:18.736Z,99960.63
2022-11-07T12:15:53.677Z,99966.59
2022-11-07T12:18:26.970Z,99969.97
2022-11-07T12:21:04.118Z,99960.63
2022-11-07T12:23:42.359Z,99973.44
2022-11-07T12:26:14.995Z,99963.19
2022-11-07T12:28:49.010Z,99973.41
2022-11-07T12:31:25.047Z,99967.44
2022-11-07T12:33:58.800Z,99970.88
2022-11-07T12:36:37.858Z,99964.88
2022-11-07T12:39:17.176Z,99961.53
2022-11-07T12:41:50.327Z,99963.25
2022-11-07T12:44:26.096Z,99954.69
2022-11-07T12:46:55.625Z,99949.56
2022-11-07T12:49:34.789Z,99959.81
2022-11-07T12:52:07.377Z,99961.53
2022-11-07T12:54:45.810Z,99958.13
2022-11-07T12:57:16.496Z,99953.00
2022-11-07T12:59:47.046Z,99958.13
2022-11-07T13:02:22.724Z,99958.13
2022-11-07T13:04:52.730Z,99960.69
2022-11-07T13:07:25.878Z,99958.13
2022-11-07T13:09:57.864Z,99967.47
2022-11-07T13:12:30.192Z,99963.25
2022-11-07T13:14:59.085Z,99958.94
2022-11-07T13:17:30.734Z,99958.97
2022-11-07T13:20:00.849Z,99957.28
2022-11-07T13:22:37.945Z,99954.69
2022-11-07T13:25:23.641Z,99953.84
2022-11-07T13:28:03.011Z,99960.66
2022-11-07T13:30:35.449Z,99958.00
2022-11-07T13:33:04.472Z,99964.81
2022-11-07T13:35:33.653Z,99961.34
2022-11-07T13:38:08.571Z,99963.03
2022-11-07T13:40:38.767Z,99963.03
2022-11-07T13:43:11.833Z,99959.66
2022-11-07T13:45:44.318Z,99963.13
2022-11-07T13:48:17.045Z,99959.72
2022-11-07T13:50:47.743Z,99958.09
2022-11-07T13:53:20.933Z,99968.34
2022-11-07T13:55:52.277Z,99964.09
2022-11-07T13:58:21.073Z,99963.25
2022-11-07T14:00:49.580Z,99959.84
2022-11-07T14:03:24.945Z,99962.44
2022-11-07T14:05:53.223Z,99964.16
2022-11-07T14:08:24.431Z,99964.16
2022-11-07T14:10:54.000Z,99970.09
2022-11-07T14:13:23.982Z,99960.75
2022-11-07T14:15:54.723Z,99974.38
2022-11-07T14:18:24.183Z,99966.72
2022-11-07T14:20:53.608Z,99968.34
2022-11-07T14:23:24.442Z,99963.28
2022-11-07T14:25:56.064Z,99957.28
2022-11-07T14:28:24.547Z,99957.31
2022-11-07T14:30:54.280Z,99959.84
2022-11-07T14:33:23.599Z,99958.13
2022-11-07T14:35:52.805Z,99959.00
2022-11-07T14:38:25.314Z,99961.56
2022-11-07T14:40:57.253Z,99952.19
2022-11-07T14:43:26.830Z,99957.31
2022-11-07T14:46:17.422Z,99946.22
2022-11-07T14:48:47.593Z,99944.50
2022-11-07T14:51:17.612Z,99949.63
2022-11-07T14:53:50.452Z,99956.41
2022-11-07T14:56:21.381Z,99955.53
2022-11-07T14:58:50.043Z,99952.09
2022-11-07T15:01:26.466Z,99960.53
2022-11-07T15:03:56.123Z,99957.09
2022-11-07T15:06:26.920Z,99959.63
2022-11-07T15:08:59.153Z,99964.69
2022-11-07T15:11:31.501Z,99968.91
2022-11-07T15:14:01.111Z,99964.63
2022-11-07T15:16:33.113Z,99957.00
2022-11-07T15:19:02.973Z,99962.09
2022-11-07T15:21:32.502Z,99955.28
2022-11-07T15:24:01.694Z,99956.94
2022-11-07T15:26:33.063Z,99960.22
2022-11-07T15:29:16.889Z,99959.34
2022-11-07T15:31:49.761Z,99960.16
2022-11-07T15:34:33.782Z,99951.59
2022-11-07T15:37:11.744Z,99969.34
2022-11-07T15:39:39.999Z,99961.59
2022-11-07T15:42:09.645Z,99970.00
2022-11-07T15:44:38.300Z,99964.88
2022-11-07T15:47:07.422Z,99975.88
2022-11-07T15:49:36.027Z,99976.59
2022-11-07T15:52:04.391Z,99980.84
2022-11-07T15:54:32.783Z,99976.56
2022-11-07T15:57:02.315Z,99989.25
2022-11-07T15:59:33.802Z,99994.25
2022-11-07T16:02:02.513Z,99996.69
2022-11-07T16:04:30.785Z,99994.97
2022-11-07T16:06:59.324Z,99998.31
2022-11-07T16:09:29.299Z,99999.94
2022-11-07T16:11:57.604Z,100001.59
2022-11-07T16:17:16.228Z,99997.19
2022-11-07T16:19:44.607Z,100007.28
2022-11-07T16:22:13.526Z,100005.56
2022-11-07T16:24:41.762Z,100012.28
2022-11-07T16:27:11.090Z,100020.63
2022-11-07T16:29:41.604Z,100019.66
2022-11-07T16:32:12.884Z,100023.84
2022-11-07T16:34:45.002Z,100027.31
2022-11-07T16:37:13.487Z,100026.31
2022-11-07T16:39:41.660Z,100033.06
2022-11-07T16:42:13.503Z,100037.28
2022-11-07T16:44:41.896Z,100041.50
2022-11-07T16:47:13.481Z,100033.94
2022-11-07T16:49:42.350Z,100027.13
2022-11-07T16:52:14.544Z,100032.97
2022-11-07T16:54:42.733Z,100033.69
2022-11-07T16:57:13.479Z,100035.31
2022-11-07T16:59:42.124Z,100036.19
2022-11-07T17:02:20.425Z,100036.97
2022-11-07T17:04:49.941Z,100034.31
2022-11-07T17:07:20.471Z,100036.69
2022-11-07T17:09:49.302Z,100033.25
2022-11-07T17:12:18.519Z,100034.91
2022-11-07T17:14:46.781Z,100028.97
2022-11-07T17:17:15.610Z,100031.56
2022-11-07T17:19:44.261Z,100042.53
2022-11-07T17:22:12.903Z,100036.59
2022-11-07T17:24:43.679Z,100029.75
2022-11-07T17:27:19.943Z,100022.13
2022-11-07T17:29:48.195Z,100019.47
2022-11-07T17:32:16.361Z,100021.88
2022-11-07T17:34:44.931Z,100022.78
2022-11-07T17:37:15.302Z,100031.25
2022-11-07T17:39:48.232Z,100036.97
2022-11-07T17:42:16.640Z,100032.63
2022-11-07T17:44:44.931Z,100033.34
2022-11-07T17:47:24.353Z,100029.97
2022-11-07T17:49:52.756Z,100038.44
2022-11-07T17:52:21.192Z,100043.56
2022-11-07T17:54:50.859Z,100036.78
2022-11-07T17:57:19.188Z,100035.09
2022-11-07T17:59:48.244Z,100037.72
2022-11-07T18:02:17.259Z,100034.25
2022-11-07T18:04:46.010Z,100041.78
2022-11-07T18:07:14.309Z,100035.97
2022-11-07T18:09:42.772Z,100036.03
2022-11-07T18:12:12.532Z,100043.66
2022-11-07T18:14:40.827Z,100042.81
2022-11-07T18:17:09.554Z,100032.66
2022-11-07T18:19:37.732Z,100028.41
2022-11-07T18:22:05.989Z,100029.28
2022-11-07T18:24:34.457Z,100027.56
2022-11-07T18:27:06.642Z,100027.41
2022-11-07T18:29:39.886Z,100029.72
2022-11-07T18:32:09.253Z,100033.84
2022-11-07T18:34:37.413Z,100045.69
2022-11-07T18:37:05.823Z,100041.53
2022-11-07T18:39:34.665Z,100049.91
2022-11-07T18:42:03.194Z,100054.06
2022-11-07T18:44:31.476Z,100054.06
2022-11-07T18:47:01.267Z,100058.34
2022-11-07T18:49:29.667Z,100060.75
2022-11-07T18:51:58.099Z,100065.69
2022-11-07T18:54:26.858Z,100055.53
2022-11-07T18:56:55.304Z,100062.22
2022-11-07T18:59:23.995Z,100066.13
2022-11-07T19:01:52.432Z,100062.69
2022-11-07T19:04:22.305Z,100053.47
2022-11-07T19:07:00.503Z,100058.66
2022-11-07T19:09:29.817Z,100063.66
2022-11-07T19:11:58.365Z,100058.53
2022-11-07T19:14:27.118Z,100061.91
2022-11-07T19:16:55.786Z,100055.19
2022-11-07T19:19:25.527Z,100064.53
2022-11-07T19:21:53.959Z,100059.41
2022-11-07T19:24:22.130Z,100053.59
2022-11-07T19:26:50.597Z,100054.53
2022-11-07T19:29:18.910Z,100058.78
2022-11-07T19:31:47.257Z,100058.75
2022-11-07T19:34:17.134Z,100055.06
2022-11-07T19:36:46.924Z,100058.06
2022-11-07T19:39:15.224Z,100056.19
2022-11-07T19:41:43.455Z,100056.19
2022-11-07T19:44:12.021Z,100059.63
2022-11-07T19:46:40.385Z,100060.34
2022-11-07T19:49:08.615Z,100064.34
2022-11-07T19:51:37.544Z,100069.28
2022-11-07T19:54:08.858Z,100075.22
2022-11-07T19:56:37.708Z,100079.66
2022-11-07T19:59:06.002Z,100074.63
2022-11-07T20:01:35.545Z,100076.41
2022-11-07T20:04:04.788Z,100076.47
2022-11-07T20:06:36.070Z,100072.25
2022-11-07T20:09:05.334Z,100076.47
2022-11-07T20:11:35.327Z,100079.84
2022-11-07T20:14:04.221Z,100084.13
2022-11-07T20:16:33.514Z,100080.69
2022-11-07T20:19:02.166Z,100077.22
2022-11-07T20:21:31.256Z,100085.69
2022-11-07T20:24:00.005Z,100096.63
2022-11-07T20:26:29.065Z,100095.69
2022-11-07T20:28:59.228Z,100095.75
2022-11-07T20:31:29.094Z,100100.84
2022-11-07T20:33:59.069Z,100091.47
2022-11-07T20:36:27.864Z,100088.13
2022-11-07T20:38:56.632Z,100089.84
2022-11-07T20:41:25.406Z,100088.94
2022-11-07T20:43:56.335Z,100082.13
2022-11-07T20:46:26.746Z,100089.84
2022-11-07T20:48:55.234Z,100097.41
2022-11-07T20:51:25.360Z,100094.63
2022-11-07T20:53:54.809Z,100092.84
2022-11-07T20:56:24.159Z,100093.53
2022-11-07T20:58:52.544Z,100092.66
2022-11-07T21:01:22.812Z,100096.06
2022-11-07T21:03:53.984Z,100091.09
2022-11-07T21:06:22.634Z,100091.88
2022-11-07T21:08:51.485Z,100088.50
2022-11-07T21:11:19.819Z,100094.41
2022-11-07T21:13:52.669Z,100102.69
2022-11-07T21:16:22.476Z,100092.44
2022-11-07T21:18:53.194Z,100100.16
2022-11-07T21:21:22.783Z,100101.72
2022-11-07T21:23:51.597Z,100096.44
2022-11-07T21:26:21.616Z,100094.88
2022-11-07T21:28:50.044Z,100096.66
2022-11-07T21:31:21.987Z,100099.19
2022-11-07T21:33:52.681Z,100104.94
2022-11-07T21:36:23.369Z,100104.13
2022-11-07T21:38:51.679Z,100099.84
2022-11-07T21:41:19.937Z,100097.34
2022-11-07T21:43:48.346Z,100102.47
2022-11-07T21:46:18.596Z,100104.13
2022-11-07T21:48:47.535Z,100104.84
2022-11-07T21:51:18.734Z,100101.41
2022-11-07T21:53:47.291Z,100104.84
2022-11-07T21:56:16.341Z,100101.50
2022-11-07T21:58:45.156Z,100106.56
2022-11-07T22:01:13.546Z,100095.66
2022-11-07T22:04:05.374Z,100099.84
2022-11-07T22:06:33.396Z,100100.63
2022-11-07T22:09:02.076Z,100097.13
2022-11-07T22:11:30.534Z,100096.25
2022-11-07T22:13:59.459Z,100098.91
2022-11-07T22:16:28.050Z,100092.94
2022-11-07T22:18:56.496Z,100100.34
2022-11-07T22:21:25.050Z,100096.78
2022-11-07T22:23:54.806Z,100090.75
2022-11-07T22:26:24.977Z,100096.25
2022-11-07T22:28:53.375Z,100099.38
2022-11-07T22:31:23.949Z,100096.94
2022-11-07T22:33:53.269Z,100096.94
2022-11-07T22:36:21.979Z,100092.84
2022-11-07T22:38:50.744Z,100094.41
2022-11-07T22:41:21.477Z,100090.88
2022-11-07T22:43:49.966Z,100087.41
2022-11-07T22:46:19.322Z,100095.16
2022-11-07T22:48:48.501Z,100093.56
2022-11-07T22:51:18.304Z,100089.25
2022-11-07T22:53:46.965Z,100098.56
2022-11-07T22:56:16.695Z,100095.28
2022-11-07T22:58:47.331Z,100087.81
2022-11-07T23:01:17.611Z,100090.41
2022-11-07T23:03:46.486Z,100084.59
2022-11-07T23:06:14.956Z,100088.66
2022-11-07T23:08:43.386Z,100083.59
2022-11-07T23:11:44.674Z,100087.03
2022-11-07T23:14:04.709Z,100091.19
2022-11-07T23:16:33.961Z,100088.56
2022-11-07T23:19:03.426Z,100090.34
2022-11-07T23:21:32.067Z,100081.06
2022-11-07T23:24:01.182Z,100081.69
2022-11-07T23:26:34.255Z,100077.38
2022-11-07T23:29:10.517Z,100073.28
2022-11-07T23:31:39.937Z,100074.75
2022-11-07T23:34:08.505Z,100077.06
2022-11-07T23:36:36.986Z,100077.16
2022-11-07T23:39:06.017Z,100072.28
2022-11-07T23:41:34.623Z,100070.63
2022-11-07T23:44:05.437Z,100073.97
2022-11-07T23:46:43.627Z,100075.59
2022-11-07T23:49:22.048Z,100078.13
2022-11-07T23:51:50.425Z,100076.47
2022-11-07T23:54:29.109Z,100086.59
2022-11-07T23:56:57.506Z,100076.47
2022-11-07T23:59:35.926Z,100078.97
